sensor_id;sensor_type;location;lat;lon;timestamp;P1;durP1;ratioP1;P2;durP2;ratioP2
51475;SDS011;37554;50.362;7.568;2022-07-29T00:02:13;5.32;;;1.50;;
51475;SDS011;37554;50.362;7.568;2022-07-29T00:04:38;2.65;;;1.00;;
51475;SDS011;37554;50.362;7.568;2022-07-29T00:07:04;3.95;;;1.30;;
51475;SDS011;37554;50.362;7.568;2022-07-29T00:09:30;2.17;;;1.10;;
51475;SDS011;37554;50.362;7.568;2022-07-29T00:11:56;3.65;;;1.00;;
51475;SDS011;37554;50.362;7.568;2022-07-29T00:14:24;1.58;;;0.98;;
51475;SDS011;37554;50.362;7.568;2022-07-29T00:16:50;3.92;;;1.00;;
51475;SDS011;37554;50.362;7.568;2022-07-29T00:19:16;3.20;;;1.15;;
51475;SDS011;37554;50.362;7.568;2022-07-29T00:21:42;2.45;;;1.00;;
51475;SDS011;37554;50.362;7.568;2022-07-29T00:24:07;1.60;;;0.90;;
51475;SDS011;37554;50.362;7.568;2022-07-29T00:26:33;1.95;;;1.00;;
51475;SDS011;37554;50.362;7.568;2022-07-29T00:28:59;4.13;;;1.15;;
51475;SDS011;37554;50.362;7.568;2022-07-29T00:31:26;2.45;;;1.00;;
51475;SDS011;37554;50.362;7.568;2022-07-29T00:33:51;1.73;;;0.95;;
51475;SDS011;37554;50.362;7.568;2022-07-29T00:36:17;1.58;;;1.00;;
51475;SDS011;37554;50.362;7.568;2022-07-29T00:38:43;2.00;;;1.02;;
51475;SDS011;37554;50.362;7.568;2022-07-29T00:41:10;1.23;;;0.90;;
51475;SDS011;37554;50.362;7.568;2022-07-29T00:43:36;2.22;;;1.02;;
51475;SDS011;37554;50.362;7.568;2022-07-29T00:46:02;3.30;;;1.00;;
51475;SDS011;37554;50.362;7.568;2022-07-29T00:48:28;2.88;;;0.95;;
51475;SDS011;37554;50.362;7.568;2022-07-29T00:50:53;3.40;;;1.23;;
51475;SDS011;37554;50.362;7.568;2022-07-29T00:53:22;2.50;;;0.70;;
51475;SDS011;37554;50.362;7.568;2022-07-29T00:55:48;3.05;;;0.95;;
51475;SDS011;37554;50.362;7.568;2022-07-29T00:58:13;2.60;;;1.20;;
51475;SDS011;37554;50.362;7.568;2022-07-29T01:00:39;3.97;;;1.30;;
51475;SDS011;37554;50.362;7.568;2022-07-29T01:03:06;2.88;;;0.93;;
51475;SDS011;37554;50.362;7.568;2022-07-29T01:05:32;4.72;;;1.02;;
51475;SDS011;37554;50.362;7.568;2022-07-29T01:07:59;5.55;;;1.20;;
51475;SDS011;37554;50.362;7.568;2022-07-29T01:10:26;3.03;;;1.10;;
51475;SDS011;37554;50.362;7.568;2022-07-29T01:12:57;3.08;;;0.95;;
51475;SDS011;37554;50.362;7.568;2022-07-29T01:15:24;3.67;;;1.05;;
51475;SDS011;37554;50.362;7.568;2022-07-29T01:23:26;1.55;;;0.70;;
51475;SDS011;37554;50.362;7.568;2022-07-29T01:29:16;1.85;;;0.90;;
51475;SDS011;37554;50.362;7.568;2022-07-29T01:31:54;2.65;;;1.10;;
51475;SDS011;37554;50.362;7.568;2022-07-29T01:34:45;3.67;;;1.02;;
51475;SDS011;37554;50.362;7.568;2022-07-29T01:40:01;2.08;;;1.05;;
51475;SDS011;37554;50.362;7.568;2022-07-29T01:42:44;4.20;;;0.90;;
51475;SDS011;37554;50.362;7.568;2022-07-29T01:47:44;2.22;;;1.00;;
51475;SDS011;37554;50.362;7.568;2022-07-29T01:50:19;3.00;;;0.90;;
51475;SDS011;37554;50.362;7.568;2022-07-29T01:55:25;2.63;;;0.90;;
51475;SDS011;37554;50.362;7.568;2022-07-29T02:00:22;2.03;;;0.85;;
51475;SDS011;37554;50.362;7.568;2022-07-29T02:02:48;2.20;;;0.93;;
51475;SDS011;37554;50.362;7.568;2022-07-29T02:05:18;3.00;;;1.00;;
51475;SDS011;37554;50.362;7.568;2022-07-29T02:07:46;1.33;;;0.80;;
51475;SDS011;37554;50.362;7.568;2022-07-29T02:10:12;3.10;;;1.05;;
51475;SDS011;37554;50.362;7.568;2022-07-29T02:12:39;5.05;;;0.95;;
51475;SDS011;37554;50.362;7.568;2022-07-29T02:15:07;5.43;;;1.20;;
51475;SDS011;37554;50.362;7.568;2022-07-29T02:17:42;4.38;;;1.15;;
51475;SDS011;37554;50.362;7.568;2022-07-29T02:20:13;4.60;;;1.17;;
51475;SDS011;37554;50.362;7.568;2022-07-29T02:22:40;2.35;;;0.75;;
51475;SDS011;37554;50.362;7.568;2022-07-29T02:25:08;2.50;;;1.27;;
51475;SDS011;37554;50.362;7.568;2022-07-29T02:27:35;4.47;;;1.00;;
51475;SDS011;37554;50.362;7.568;2022-07-29T02:30:04;2.78;;;1.13;;
51475;SDS011;37554;50.362;7.568;2022-07-29T02:32:32;2.00;;;0.95;;
51475;SDS011;37554;50.362;7.568;2022-07-29T02:35:01;3.67;;;1.20;;
51475;SDS011;37554;50.362;7.568;2022-07-29T02:37:28;1.90;;;0.90;;
51475;SDS011;37554;50.362;7.568;2022-07-29T02:39:54;2.92;;;1.23;;
51475;SDS011;37554;50.362;7.568;2022-07-29T02:42:22;2.15;;;0.95;;
51475;SDS011;37554;50.362;7.568;2022-07-29T02:44:49;2.90;;;0.93;;
51475;SDS011;37554;50.362;7.568;2022-07-29T02:47:19;5.43;;;1.48;;
51475;SDS011;37554;50.362;7.568;2022-07-29T02:49:53;2.75;;;1.00;;
51475;SDS011;37554;50.362;7.568;2022-07-29T02:54:55;2.47;;;1.27;;
51475;SDS011;37554;50.362;7.568;2022-07-29T02:57:37;2.92;;;0.90;;
51475;SDS011;37554;50.362;7.568;2022-07-29T03:00:09;2.35;;;1.05;;
51475;SDS011;37554;50.362;7.568;2022-07-29T03:02:43;5.10;;;1.10;;
51475;SDS011;37554;50.362;7.568;2022-07-29T03:05:15;2.38;;;0.90;;
51475;SDS011;37554;50.362;7.568;2022-07-29T03:07:45;5.63;;;1.35;;
51475;SDS011;37554;50.362;7.568;2022-07-29T03:10:16;3.60;;;1.05;;
51475;SDS011;37554;50.362;7.568;2022-07-29T03:12:42;3.55;;;0.90;;
51475;SDS011;37554;50.362;7.568;2022-07-29T03:15:09;2.15;;;0.90;;
51475;SDS011;37554;50.362;7.568;2022-07-29T03:17:35;2.08;;;0.95;;
51475;SDS011;37554;50.362;7.568;2022-07-29T03:20:04;2.35;;;1.10;;
51475;SDS011;37554;50.362;7.568;2022-07-29T03:22:31;2.45;;;0.90;;
51475;SDS011;37554;50.362;7.568;2022-07-29T03:24:57;3.92;;;1.08;;
51475;SDS011;37554;50.362;7.568;2022-07-29T03:27:23;1.42;;;0.88;;
51475;SDS011;37554;50.362;7.568;2022-07-29T03:29:48;4.15;;;0.95;;
51475;SDS011;37554;50.362;7.568;2022-07-29T03:32:14;2.75;;;1.15;;
51475;SDS011;37554;50.362;7.568;2022-07-29T03:34:39;3.42;;;1.30;;
51475;SDS011;37554;50.362;7.568;2022-07-29T03:37:05;1.75;;;1.20;;
51475;SDS011;37554;50.362;7.568;2022-07-29T03:39:33;3.55;;;1.13;;
51475;SDS011;37554;50.362;7.568;2022-07-29T03:42:03;3.13;;;1.05;;
51475;SDS011;37554;50.362;7.568;2022-07-29T03:44:31;2.13;;;0.90;;
51475;SDS011;37554;50.362;7.568;2022-07-29T03:46:58;3.75;;;0.82;;
51475;SDS011;37554;50.362;7.568;2022-07-29T03:49:26;3.80;;;0.98;;
51475;SDS011;37554;50.362;7.568;2022-07-29T03:51:53;4.65;;;1.15;;
51475;SDS011;37554;50.362;7.568;2022-07-29T03:54:19;2.42;;;1.25;;
51475;SDS011;37554;50.362;7.568;2022-07-29T03:56:45;4.38;;;0.82;;
51475;SDS011;37554;50.362;7.568;2022-07-29T03:59:14;2.42;;;0.80;;
51475;SDS011;37554;50.362;7.568;2022-07-29T04:01:41;5.13;;;0.98;;
51475;SDS011;37554;50.362;7.568;2022-07-29T04:04:07;3.38;;;0.88;;
51475;SDS011;37554;50.362;7.568;2022-07-29T04:06:39;2.10;;;0.95;;
51475;SDS011;37554;50.362;7.568;2022-07-29T04:09:09;1.52;;;0.95;;
51475;SDS011;37554;50.362;7.568;2022-07-29T04:11:36;3.15;;;1.00;;
51475;SDS011;37554;50.362;7.568;2022-07-29T04:14:03;2.78;;;1.17;;
51475;SDS011;37554;50.362;7.568;2022-07-29T04:16:29;2.75;;;1.00;;
51475;SDS011;37554;50.362;7.568;2022-07-29T04:18:55;4.65;;;1.08;;
51475;SDS011;37554;50.362;7.568;2022-07-29T04:21:21;3.33;;;1.38;;
51475;SDS011;37554;50.362;7.568;2022-07-29T04:23:46;3.47;;;1.10;;
51475;SDS011;37554;50.362;7.568;2022-07-29T04:26:14;3.08;;;1.10;;
51475;SDS011;37554;50.362;7.568;2022-07-29T04:28:41;3.63;;;1.10;;
51475;SDS011;37554;50.362;7.568;2022-07-29T04:31:07;4.50;;;1.17;;
51475;SDS011;37554;50.362;7.568;2022-07-29T04:33:33;1.88;;;1.10;;
51475;SDS011;37554;50.362;7.568;2022-07-29T04:35:59;2.70;;;1.10;;
51475;SDS011;37554;50.362;7.568;2022-07-29T04:38:24;3.50;;;1.05;;
51475;SDS011;37554;50.362;7.568;2022-07-29T04:40:50;4.47;;;1.20;;
51475;SDS011;37554;50.362;7.568;2022-07-29T04:43:16;2.03;;;1.00;;
51475;SDS011;37554;50.362;7.568;2022-07-29T04:45:42;3.55;;;0.90;;
51475;SDS011;37554;50.362;7.568;2022-07-29T04:48:07;3.30;;;0.90;;
51475;SDS011;37554;50.362;7.568;2022-07-29T04:50:33;4.63;;;1.00;;
51475;SDS011;37554;50.362;7.568;2022-07-29T04:52:59;2.42;;;1.00;;
51475;SDS011;37554;50.362;7.568;2022-07-29T04:55:24;2.30;;;1.08;;
51475;SDS011;37554;50.362;7.568;2022-07-29T04:57:50;4.35;;;1.35;;
51475;SDS011;37554;50.362;7.568;2022-07-29T05:00:18;2.03;;;1.10;;
51475;SDS011;37554;50.362;7.568;2022-07-29T05:02:44;3.55;;;1.10;;
51475;SDS011;37554;50.362;7.568;2022-07-29T05:05:10;1.48;;;1.10;;
51475;SDS011;37554;50.362;7.568;2022-07-29T05:07:35;2.90;;;1.08;;
51475;SDS011;37554;50.362;7.568;2022-07-29T05:10:01;2.63;;;1.27;;
51475;SDS011;37554;50.362;7.568;2022-07-29T05:12:27;1.65;;;1.02;;
51475;SDS011;37554;50.362;7.568;2022-07-29T05:14:53;4.45;;;1.13;;
51475;SDS011;37554;50.362;7.568;2022-07-29T05:17:19;2.55;;;1.30;;
51475;SDS011;37554;50.362;7.568;2022-07-29T05:19:44;3.35;;;1.10;;
51475;SDS011;37554;50.362;7.568;2022-07-29T05:22:10;2.85;;;1.30;;
51475;SDS011;37554;50.362;7.568;2022-07-29T05:24:35;3.42;;;1.30;;
51475;SDS011;37554;50.362;7.568;2022-07-29T05:27:01;4.68;;;1.38;;
51475;SDS011;37554;50.362;7.568;2022-07-29T05:29:26;1.75;;;1.10;;
51475;SDS011;37554;50.362;7.568;2022-07-29T05:31:52;2.55;;;1.08;;
51475;SDS011;37554;50.362;7.568;2022-07-29T05:34:18;4.38;;;1.27;;
51475;SDS011;37554;50.362;7.568;2022-07-29T05:36:44;2.92;;;0.90;;
51475;SDS011;37554;50.362;7.568;2022-07-29T05:39:10;3.75;;;1.20;;
51475;SDS011;37554;50.362;7.568;2022-07-29T05:41:37;6.18;;;1.65;;
51475;SDS011;37554;50.362;7.568;2022-07-29T05:44:03;1.55;;;1.20;;
51475;SDS011;37554;50.362;7.568;2022-07-29T05:46:29;2.28;;;1.20;;
51475;SDS011;37554;50.362;7.568;2022-07-29T05:48:55;4.22;;;1.10;;
51475;SDS011;37554;50.362;7.568;2022-07-29T05:51:21;2.25;;;1.00;;
51475;SDS011;37554;50.362;7.568;2022-07-29T05:53:47;1.55;;;0.90;;
51475;SDS011;37554;50.362;7.568;2022-07-29T05:56:12;2.65;;;1.20;;
51475;SDS011;37554;50.362;7.568;2022-07-29T05:58:38;3.90;;;1.10;;
51475;SDS011;37554;50.362;7.568;2022-07-29T06:01:04;2.97;;;1.20;;
51475;SDS011;37554;50.362;7.568;2022-07-29T06:03:29;4.22;;;1.30;;
51475;SDS011;37554;50.362;7.568;2022-07-29T06:05:55;3.58;;;1.13;;
51475;SDS011;37554;50.362;7.568;2022-07-29T06:08:21;4.65;;;1.20;;
51475;SDS011;37554;50.362;7.568;2022-07-29T06:10:46;3.58;;;1.27;;
51475;SDS011;37554;50.362;7.568;2022-07-29T06:13:12;3.60;;;1.25;;
51475;SDS011;37554;50.362;7.568;2022-07-29T06:15:38;5.30;;;1.65;;
51475;SDS011;37554;50.362;7.568;2022-07-29T06:18:03;8.63;;;1.45;;
51475;SDS011;37554;50.362;7.568;2022-07-29T06:20:32;5.80;;;1.70;;
51475;SDS011;37554;50.362;7.568;2022-07-29T06:22:58;8.02;;;1.50;;
51475;SDS011;37554;50.362;7.568;2022-07-29T06:25:24;4.57;;;1.48;;
51475;SDS011;37554;50.362;7.568;2022-07-29T06:27:50;3.20;;;1.77;;
51475;SDS011;37554;50.362;7.568;2022-07-29T06:30:15;7.05;;;1.90;;
51475;SDS011;37554;50.362;7.568;2022-07-29T06:32:41;14.27;;;2.10;;
51475;SDS011;37554;50.362;7.568;2022-07-29T06:35:06;11.77;;;1.70;;
51475;SDS011;37554;50.362;7.568;2022-07-29T06:37:32;5.07;;;1.70;;
51475;SDS011;37554;50.362;7.568;2022-07-29T06:39:58;7.68;;;1.55;;
51475;SDS011;37554;50.362;7.568;2022-07-29T06:42:42;7.35;;;1.73;;
51475;SDS011;37554;50.362;7.568;2022-07-29T06:45:09;9.82;;;1.88;;
51475;SDS011;37554;50.362;7.568;2022-07-29T06:47:35;5.78;;;2.00;;
51475;SDS011;37554;50.362;7.568;2022-07-29T06:50:01;2.97;;;1.45;;
51475;SDS011;37554;50.362;7.568;2022-07-29T06:52:27;10.65;;;1.85;;
51475;SDS011;37554;50.362;7.568;2022-07-29T06:54:52;5.30;;;1.60;;
51475;SDS011;37554;50.362;7.568;2022-07-29T06:57:19;8.82;;;1.70;;
51475;SDS011;37554;50.362;7.568;2022-07-29T06:59:46;4.95;;;1.63;;
51475;SDS011;37554;50.362;7.568;2022-07-29T07:02:12;8.82;;;1.60;;
51475;SDS011;37554;50.362;7.568;2022-07-29T07:04:37;3.80;;;1.33;;
51475;SDS011;37554;50.362;7.568;2022-07-29T07:07:03;7.30;;;1.60;;
51475;SDS011;37554;50.362;7.568;2022-07-29T07:09:29;2.85;;;1.23;;
51475;SDS011;37554;50.362;7.568;2022-07-29T07:11:54;5.03;;;1.48;;
51475;SDS011;37554;50.362;7.568;2022-07-29T07:14:20;6.60;;;1.48;;
51475;SDS011;37554;50.362;7.568;2022-07-29T07:16:45;5.57;;;1.40;;
51475;SDS011;37554;50.362;7.568;2022-07-29T07:19:11;3.92;;;1.33;;
51475;SDS011;37554;50.362;7.568;2022-07-29T07:21:37;5.18;;;1.40;;
51475;SDS011;37554;50.362;7.568;2022-07-29T07:24:02;4.47;;;1.50;;
51475;SDS011;37554;50.362;7.568;2022-07-29T07:26:28;2.45;;;1.10;;
51475;SDS011;37554;50.362;7.568;2022-07-29T07:28:54;4.82;;;1.30;;
51475;SDS011;37554;50.362;7.568;2022-07-29T07:31:19;4.03;;;1.13;;
51475;SDS011;37554;50.362;7.568;2022-07-29T07:33:45;4.20;;;1.17;;
51475;SDS011;37554;50.362;7.568;2022-07-29T07:36:11;3.70;;;1.15;;
51475;SDS011;37554;50.362;7.568;2022-07-29T07:38:36;2.45;;;1.10;;
51475;SDS011;37554;50.362;7.568;2022-07-29T07:41:02;3.53;;;1.42;;
51475;SDS011;37554;50.362;7.568;2022-07-29T07:43:28;8.60;;;1.95;;
51475;SDS011;37554;50.362;7.568;2022-07-29T07:45:53;4.28;;;1.40;;
51475;SDS011;37554;50.362;7.568;2022-07-29T07:48:19;5.45;;;1.25;;
51475;SDS011;37554;50.362;7.568;2022-07-29T07:50:45;4.50;;;1.25;;
51475;SDS011;37554;50.362;7.568;2022-07-29T07:53:11;6.38;;;1.20;;
51475;SDS011;37554;50.362;7.568;2022-07-29T07:55:40;3.38;;;1.27;;
51475;SDS011;37554;50.362;7.568;2022-07-29T07:58:07;4.82;;;1.45;;
51475;SDS011;37554;50.362;7.568;2022-07-29T08:00:33;3.15;;;1.20;;
51475;SDS011;37554;50.362;7.568;2022-07-29T08:02:59;7.43;;;1.45;;
51475;SDS011;37554;50.362;7.568;2022-07-29T08:05:25;11.90;;;1.48;;
51475;SDS011;37554;50.362;7.568;2022-07-29T08:07:50;7.80;;;1.40;;
51475;SDS011;37554;50.362;7.568;2022-07-29T08:10:16;5.00;;;1.38;;
51475;SDS011;37554;50.362;7.568;2022-07-29T08:13:06;2.78;;;1.45;;
51475;SDS011;37554;50.362;7.568;2022-07-29T08:15:34;6.97;;;1.50;;
51475;SDS011;37554;50.362;7.568;2022-07-29T08:18:00;4.88;;;1.40;;
51475;SDS011;37554;50.362;7.568;2022-07-29T08:20:26;6.47;;;1.83;;
51475;SDS011;37554;50.362;7.568;2022-07-29T08:22:52;4.88;;;1.40;;
51475;SDS011;37554;50.362;7.568;2022-07-29T08:25:18;7.20;;;1.40;;
51475;SDS011;37554;50.362;7.568;2022-07-29T08:27:45;4.65;;;1.42;;
51475;SDS011;37554;50.362;7.568;2022-07-29T08:30:11;7.38;;;1.45;;
51475;SDS011;37554;50.362;7.568;2022-07-29T08:32:37;4.60;;;1.50;;
51475;SDS011;37554;50.362;7.568;2022-07-29T08:35:03;10.77;;;1.60;;
51475;SDS011;37554;50.362;7.568;2022-07-29T08:37:29;6.50;;;1.40;;
51475;SDS011;37554;50.362;7.568;2022-07-29T08:39:55;5.22;;;1.50;;
51475;SDS011;37554;50.362;7.568;2022-07-29T08:42:21;7.90;;;1.60;;
51475;SDS011;37554;50.362;7.568;2022-07-29T08:44:46;8.40;;;1.75;;
51475;SDS011;37554;50.362;7.568;2022-07-29T08:47:16;3.97;;;1.55;;
51475;SDS011;37554;50.362;7.568;2022-07-29T08:49:42;6.15;;;1.42;;
51475;SDS011;37554;50.362;7.568;2022-07-29T08:52:09;8.23;;;1.80;;
51475;SDS011;37554;50.362;7.568;2022-07-29T08:54:36;5.60;;;1.70;;
51475;SDS011;37554;50.362;7.568;2022-07-29T08:57:03;6.43;;;1.85;;
51475;SDS011;37554;50.362;7.568;2022-07-29T08:59:29;4.97;;;1.80;;
51475;SDS011;37554;50.362;7.568;2022-07-29T09:01:58;4.68;;;1.55;;
51475;SDS011;37554;50.362;7.568;2022-07-29T09:04:26;4.70;;;1.52;;
51475;SDS011;37554;50.362;7.568;2022-07-29T09:06:54;6.18;;;1.75;;
51475;SDS011;37554;50.362;7.568;2022-07-29T09:09:24;4.95;;;1.27;;
51475;SDS011;37554;50.362;7.568;2022-07-29T09:11:50;8.20;;;2.20;;
51475;SDS011;37554;50.362;7.568;2022-07-29T09:14:18;6.70;;;1.90;;
51475;SDS011;37554;50.362;7.568;2022-07-29T09:16:48;6.25;;;1.83;;
51475;SDS011;37554;50.362;7.568;2022-07-29T09:19:23;7.97;;;1.90;;
51475;SDS011;37554;50.362;7.568;2022-07-29T09:21:50;3.50;;;1.48;;
51475;SDS011;37554;50.362;7.568;2022-07-29T09:24:22;11.27;;;1.98;;
51475;SDS011;37554;50.362;7.568;2022-07-29T09:26:49;8.02;;;1.70;;
51475;SDS011;37554;50.362;7.568;2022-07-29T09:29:15;13.88;;;1.80;;
51475;SDS011;37554;50.362;7.568;2022-07-29T09:31:47;7.13;;;1.83;;
51475;SDS011;37554;50.362;7.568;2022-07-29T09:34:15;5.28;;;1.80;;
51475;SDS011;37554;50.362;7.568;2022-07-29T09:36:43;4.82;;;1.48;;
51475;SDS011;37554;50.362;7.568;2022-07-29T09:39:10;5.43;;;1.67;;
51475;SDS011;37554;50.362;7.568;2022-07-29T09:44:14;4.65;;;1.90;;
51475;SDS011;37554;50.362;7.568;2022-07-29T09:49:32;7.97;;;1.80;;
51475;SDS011;37554;50.362;7.568;2022-07-29T09:52:03;4.22;;;1.83;;
51475;SDS011;37554;50.362;7.568;2022-07-29T09:54:30;3.72;;;1.33;;
51475;SDS011;37554;50.362;7.568;2022-07-29T09:57:01;6.38;;;1.67;;
51475;SDS011;37554;50.362;7.568;2022-07-29T09:59:28;7.18;;;1.80;;
51475;SDS011;37554;50.362;7.568;2022-07-29T10:01:54;4.53;;;1.70;;
51475;SDS011;37554;50.362;7.568;2022-07-29T10:04:20;4.88;;;1.75;;
51475;SDS011;37554;50.362;7.568;2022-07-29T10:06:59;7.07;;;1.80;;
51475;SDS011;37554;50.362;7.568;2022-07-29T10:09:26;10.27;;;1.90;;
51475;SDS011;37554;50.362;7.568;2022-07-29T10:12:11;6.40;;;1.80;;
51475;SDS011;37554;50.362;7.568;2022-07-29T10:14:39;6.35;;;1.80;;
51475;SDS011;37554;50.362;7.568;2022-07-29T10:17:07;6.30;;;1.83;;
51475;SDS011;37554;50.362;7.568;2022-07-29T10:19:35;4.03;;;1.40;;
51475;SDS011;37554;50.362;7.568;2022-07-29T10:22:03;3.72;;;1.58;;
51475;SDS011;37554;50.362;7.568;2022-07-29T10:24:31;4.30;;;1.50;;
51475;SDS011;37554;50.362;7.568;2022-07-29T10:26:58;4.55;;;1.60;;
51475;SDS011;37554;50.362;7.568;2022-07-29T10:29:25;3.65;;;1.40;;
51475;SDS011;37554;50.362;7.568;2022-07-29T10:40:22;5.95;;;1.85;;
51475;SDS011;37554;50.362;7.568;2022-07-29T10:43:16;5.85;;;1.77;;
51475;SDS011;37554;50.362;7.568;2022-07-29T10:45:47;2.53;;;1.65;;
51475;SDS011;37554;50.362;7.568;2022-07-29T10:48:14;4.28;;;2.08;;
51475;SDS011;37554;50.362;7.568;2022-07-29T10:50:57;2.83;;;1.50;;
51475;SDS011;37554;50.362;7.568;2022-07-29T10:53:51;6.85;;;1.42;;
51475;SDS011;37554;50.362;7.568;2022-07-29T10:56:27;5.50;;;2.05;;
51475;SDS011;37554;50.362;7.568;2022-07-29T11:01:45;3.50;;;1.75;;
51475;SDS011;37554;50.362;7.568;2022-07-29T11:04:15;4.07;;;1.77;;
51475;SDS011;37554;50.362;7.568;2022-07-29T11:09:25;5.88;;;1.60;;
51475;SDS011;37554;50.362;7.568;2022-07-29T11:11:51;3.55;;;1.85;;
51475;SDS011;37554;50.362;7.568;2022-07-29T11:14:18;3.58;;;1.80;;
51475;SDS011;37554;50.362;7.568;2022-07-29T11:17:04;8.05;;;2.15;;
51475;SDS011;37554;50.362;7.568;2022-07-29T11:19:31;4.68;;;1.95;;
51475;SDS011;37554;50.362;7.568;2022-07-29T11:21:57;4.13;;;1.70;;
51475;SDS011;37554;50.362;7.568;2022-07-29T11:24:24;4.40;;;1.67;;
51475;SDS011;37554;50.362;7.568;2022-07-29T11:29:48;3.15;;;1.63;;
51475;SDS011;37554;50.362;7.568;2022-07-29T11:32:22;3.45;;;1.70;;
51475;SDS011;37554;50.362;7.568;2022-07-29T11:37:37;4.47;;;1.58;;
51475;SDS011;37554;50.362;7.568;2022-07-29T11:47:39;6.05;;;1.67;;
51475;SDS011;37554;50.362;7.568;2022-07-29T11:50:12;4.95;;;1.55;;
51475;SDS011;37554;50.362;7.568;2022-07-29T11:52:43;6.32;;;2.10;;
51475;SDS011;37554;50.362;7.568;2022-07-29T11:55:16;3.05;;;1.73;;
51475;SDS011;37554;50.362;7.568;2022-07-29T11:57:50;7.15;;;1.90;;
51475;SDS011;37554;50.362;7.568;2022-07-29T12:00:28;4.38;;;1.60;;
51475;SDS011;37554;50.362;7.568;2022-07-29T12:02:55;7.22;;;1.98;;
51475;SDS011;37554;50.362;7.568;2022-07-29T12:05:29;3.35;;;1.45;;
51475;SDS011;37554;50.362;7.568;2022-07-29T12:10:36;6.53;;;1.75;;
51475;SDS011;37554;50.362;7.568;2022-07-29T12:13:03;4.07;;;1.90;;
51475;SDS011;37554;50.362;7.568;2022-07-29T12:15:29;6.30;;;1.90;;
51475;SDS011;37554;50.362;7.568;2022-07-29T12:17:54;7.35;;;1.70;;
51475;SDS011;37554;50.362;7.568;2022-07-29T12:20:24;5.03;;;1.98;;
51475;SDS011;37554;50.362;7.568;2022-07-29T12:22:51;7.50;;;1.80;;
51475;SDS011;37554;50.362;7.568;2022-07-29T12:25:18;2.30;;;1.45;;
51475;SDS011;37554;50.362;7.568;2022-07-29T12:27:45;2.70;;;1.40;;
51475;SDS011;37554;50.362;7.568;2022-07-29T12:30:14;4.72;;;1.45;;
51475;SDS011;37554;50.362;7.568;2022-07-29T12:35:10;2.10;;;1.30;;
51475;SDS011;37554;50.362;7.568;2022-07-29T12:37:36;3.35;;;1.40;;
51475;SDS011;37554;50.362;7.568;2022-07-29T12:40:04;3.70;;;1.67;;
51475;SDS011;37554;50.362;7.568;2022-07-29T12:42:32;2.25;;;1.35;;
51475;SDS011;37554;50.362;7.568;2022-07-29T12:44:58;2.40;;;1.40;;
51475;SDS011;37554;50.362;7.568;2022-07-29T12:47:23;2.88;;;1.40;;
51475;SDS011;37554;50.362;7.568;2022-07-29T12:49:49;2.72;;;1.25;;
51475;SDS011;37554;50.362;7.568;2022-07-29T12:52:32;2.60;;;1.23;;
51475;SDS011;37554;50.362;7.568;2022-07-29T12:54:59;4.00;;;1.33;;
51475;SDS011;37554;50.362;7.568;2022-07-29T12:57:25;2.78;;;1.40;;
51475;SDS011;37554;50.362;7.568;2022-07-29T13:00:25;3.00;;;1.35;;
51475;SDS011;37554;50.362;7.568;2022-07-29T13:02:53;4.50;;;1.40;;
51475;SDS011;37554;50.362;7.568;2022-07-29T13:05:20;3.30;;;1.23;;
51475;SDS011;37554;50.362;7.568;2022-07-29T13:07:46;3.17;;;1.35;;
51475;SDS011;37554;50.362;7.568;2022-07-29T13:10:13;4.28;;;1.42;;
51475;SDS011;37554;50.362;7.568;2022-07-29T13:15:34;3.72;;;1.38;;
51475;SDS011;37554;50.362;7.568;2022-07-29T13:18:01;2.20;;;1.20;;
51475;SDS011;37554;50.362;7.568;2022-07-29T13:20:28;3.22;;;1.27;;
51475;SDS011;37554;50.362;7.568;2022-07-29T13:22:55;2.17;;;1.10;;
51475;SDS011;37554;50.362;7.568;2022-07-29T13:25:26;3.08;;;1.20;;
51475;SDS011;37554;50.362;7.568;2022-07-29T13:27:59;2.28;;;1.13;;
51475;SDS011;37554;50.362;7.568;2022-07-29T13:30:24;1.90;;;1.02;;
51475;SDS011;37554;50.362;7.568;2022-07-29T13:32:51;4.13;;;1.33;;
51475;SDS011;37554;50.362;7.568;2022-07-29T13:35:17;2.13;;;1.20;;
51475;SDS011;37554;50.362;7.568;2022-07-29T13:37:44;4.38;;;1.38;;
51475;SDS011;37554;50.362;7.568;2022-07-29T13:40:10;5.75;;;1.83;;
51475;SDS011;37554;50.362;7.568;2022-07-29T13:42:36;3.00;;;1.40;;
51475;SDS011;37554;50.362;7.568;2022-07-29T13:45:02;5.13;;;1.85;;
51475;SDS011;37554;50.362;7.568;2022-07-29T13:47:29;5.82;;;1.73;;
51475;SDS011;37554;50.362;7.568;2022-07-29T13:49:55;7.38;;;1.42;;
51475;SDS011;37554;50.362;7.568;2022-07-29T13:52:20;4.25;;;1.20;;
51475;SDS011;37554;50.362;7.568;2022-07-29T13:54:46;4.75;;;1.48;;
51475;SDS011;37554;50.362;7.568;2022-07-29T13:57:12;2.83;;;1.60;;
51475;SDS011;37554;50.362;7.568;2022-07-29T13:59:42;2.70;;;1.55;;
51475;SDS011;37554;50.362;7.568;2022-07-29T14:02:09;2.22;;;1.67;;
51475;SDS011;37554;50.362;7.568;2022-07-29T14:04:35;2.53;;;1.42;;
51475;SDS011;37554;50.362;7.568;2022-07-29T14:07:01;5.40;;;1.80;;
51475;SDS011;37554;50.362;7.568;2022-07-29T14:09:28;7.00;;;1.92;;
51475;SDS011;37554;50.362;7.568;2022-07-29T14:11:53;6.55;;;1.65;;
51475;SDS011;37554;50.362;7.568;2022-07-29T14:14:19;7.75;;;1.70;;
51475;SDS011;37554;50.362;7.568;2022-07-29T14:16:45;3.88;;;1.52;;
51475;SDS011;37554;50.362;7.568;2022-07-29T14:19:11;3.40;;;1.40;;
51475;SDS011;37554;50.362;7.568;2022-07-29T14:21:37;3.45;;;1.60;;
51475;SDS011;37554;50.362;7.568;2022-07-29T14:24:04;6.03;;;1.83;;
51475;SDS011;37554;50.362;7.568;2022-07-29T14:26:30;5.85;;;1.63;;
51475;SDS011;37554;50.362;7.568;2022-07-29T14:28:56;9.63;;;1.55;;
51475;SDS011;37554;50.362;7.568;2022-07-29T14:31:23;4.95;;;1.67;;
51475;SDS011;37554;50.362;7.568;2022-07-29T14:33:49;8.85;;;1.70;;
51475;SDS011;37554;50.362;7.568;2022-07-29T14:36:14;6.88;;;2.10;;
51475;SDS011;37554;50.362;7.568;2022-07-29T14:38:40;10.95;;;2.22;;
51475;SDS011;37554;50.362;7.568;2022-07-29T18:43:06;4.28;;;1.50;;
51475;SDS011;37554;50.362;7.568;2022-07-29T18:45:32;3.08;;;1.60;;
51475;SDS011;37554;50.362;7.568;2022-07-29T18:47:58;4.40;;;1.58;;
51475;SDS011;37554;50.362;7.568;2022-07-29T18:50:24;5.03;;;1.40;;
51475;SDS011;37554;50.362;7.568;2022-07-29T18:52:51;4.65;;;1.40;;
51475;SDS011;37554;50.362;7.568;2022-07-29T18:55:16;5.07;;;1.50;;
51475;SDS011;37554;50.362;7.568;2022-07-29T18:57:42;3.53;;;1.40;;
51475;SDS011;37554;50.362;7.568;2022-07-29T19:00:08;3.42;;;1.33;;
51475;SDS011;37554;50.362;7.568;2022-07-29T19:02:35;3.15;;;1.60;;
51475;SDS011;37554;50.362;7.568;2022-07-29T19:05:02;3.78;;;1.40;;
51475;SDS011;37554;50.362;7.568;2022-07-29T19:07:32;5.90;;;1.63;;
51475;SDS011;37554;50.362;7.568;2022-07-29T19:09:58;4.65;;;1.95;;
51475;SDS011;37554;50.362;7.568;2022-07-29T19:12:23;4.13;;;1.52;;
51475;SDS011;37554;50.362;7.568;2022-07-29T19:14:49;3.40;;;1.80;;
51475;SDS011;37554;50.362;7.568;2022-07-29T19:17:15;3.15;;;1.27;;
51475;SDS011;37554;50.362;7.568;2022-07-29T19:19:40;2.53;;;1.50;;
51475;SDS011;37554;50.362;7.568;2022-07-29T19:22:06;4.13;;;1.30;;
51475;SDS011;37554;50.362;7.568;2022-07-29T19:24:32;5.72;;;1.40;;
51475;SDS011;37554;50.362;7.568;2022-07-29T19:26:57;3.70;;;1.67;;
51475;SDS011;37554;50.362;7.568;2022-07-29T19:29:23;3.83;;;1.50;;
51475;SDS011;37554;50.362;7.568;2022-07-29T19:31:50;5.03;;;1.40;;
51475;SDS011;37554;50.362;7.568;2022-07-29T19:34:16;5.80;;;1.65;;
51475;SDS011;37554;50.362;7.568;2022-07-29T19:36:42;3.08;;;1.33;;
51475;SDS011;37554;50.362;7.568;2022-07-29T19:39:07;3.75;;;1.50;;
51475;SDS011;37554;50.362;7.568;2022-07-29T19:41:33;3.35;;;1.48;;
51475;SDS011;37554;50.362;7.568;2022-07-29T19:43:59;6.60;;;1.85;;
51475;SDS011;37554;50.362;7.568;2022-07-29T19:46:24;5.30;;;1.30;;
51475;SDS011;37554;50.362;7.568;2022-07-29T19:48:52;5.30;;;1.80;;
51475;SDS011;37554;50.362;7.568;2022-07-29T19:51:18;4.78;;;1.88;;
51475;SDS011;37554;50.362;7.568;2022-07-29T19:53:44;2.58;;;1.20;;
51475;SDS011;37554;50.362;7.568;2022-07-29T19:56:10;7.22;;;1.77;;